sensor_id;sensor_type;location;lat;lon;timestamp;pressure;altitude;pressure_sealevel;temperature;humidity
48553;BME280;34335;51.566;6.994;2023-03-20T00:01:27;101334.63;;;8.18;100.00
48553;BME280;34335;51.566;6.994;2023-03-20T00:03:54;101329.34;;;8.14;100.00
48553;BME280;34335;51.566;6.994;2023-03-20T00:06:24;101333.38;;;7.98;100.00
48553;BME280;34335;51.566;6.994;2023-03-20T00:08:51;101338.03;;;8.16;100.00
48553;BME280;34335;51.566;6.994;2023-03-20T00:13:57;101328.50;;;8.13;100.00
48553;BME280;34335;51.566;6.994;2023-03-20T00:16:26;101336.75;;;7.93;100.00
48553;BME280;34335;51.566;6.994;2023-03-20T00:18:53;101335.00;;;7.94;100.00
48553;BME280;34335;51.566;6.994;2023-03-20T00:21:20;101333.38;;;7.98;100.00
48553;BME280;34335;51.566;6.994;2023-03-20T00:23:46;101328.25;;;8.01;100.00
48553;BME280;34335;51.566;6.994;2023-03-20T00:26:13;101329.41;;;8.17;100.00
48553;BME280;34335;51.566;6.994;2023-03-20T00:28:48;101331.75;;;8.04;100.00
48553;BME280;34335;51.566;6.994;2023-03-20T00:33:59;101349.63;;;7.90;100.00
48553;BME280;34335;51.566;6.994;2023-03-20T00:36:25;101341.06;;;7.93;100.00
48553;BME280;34335;51.566;6.994;2023-03-20T00:38:51;101346.00;;;7.82;100.00
48553;BME280;34335;51.566;6.994;2023-03-20T00:41:32;101347.59;;;7.75;100.00
48553;BME280;34335;51.566;6.994;2023-03-20T00:46:56;101341.44;;;7.69;100.00
48553;BME280;34335;51.566;6.994;2023-03-20T00:49:25;101346.63;;;7.70;100.00
48553;BME280;34335;51.566;6.994;2023-03-20T00:51:52;101340.41;;;7.62;100.00
48553;BME280;34335;51.566;6.994;2023-03-20T00:54:17;101338.78;;;7.67;100.00
48553;BME280;34335;51.566;6.994;2023-03-20T00:56:59;101326.03;;;7.76;100.00
48553;BME280;34335;51.566;6.994;2023-03-20T00:59:29;101328.78;;;7.83;100.00
48553;BME280;34335;51.566;6.994;2023-03-20T01:01:56;101330.00;;;7.59;100.00
48553;BME280;34335;51.566;6.994;2023-03-20T01:04:22;101327.66;;;7.71;100.00
48553;BME280;34335;51.566;6.994;2023-03-20T01:06:48;101327.41;;;7.59;100.00
48553;BME280;34335;51.566;6.994;2023-03-20T01:09:13;101330.06;;;7.62;100.00
48553;BME280;34335;51.566;6.994;2023-03-20T01:11:39;101331.16;;;7.73;100.00
48553;BME280;34335;51.566;6.994;2023-03-20T01:14:11;101337.09;;;7.69;100.00
48553;BME280;34335;51.566;6.994;2023-03-20T01:16:37;101333.59;;;7.66;100.00
48553;BME280;34335;51.566;6.994;2023-03-20T01:19:03;101338.03;;;7.73;100.00
48553;BME280;34335;51.566;6.994;2023-03-20T01:21:28;101335.56;;;7.77;100.00
48553;BME280;34335;51.566;6.994;2023-03-20T01:23:54;101331.81;;;7.63;100.00
48553;BME280;34335;51.566;6.994;2023-03-20T01:26:29;101327.72;;;7.74;100.00
48553;BME280;34335;51.566;6.994;2023-03-20T01:28:56;101329.38;;;7.71;100.00
48553;BME280;34335;51.566;6.994;2023-03-20T01:31:21;101329.44;;;7.74;100.00
48553;BME280;34335;51.566;6.994;2023-03-20T01:33:46;101340.66;;;7.74;100.00
48553;BME280;34335;51.566;6.994;2023-03-20T01:36:13;101347.56;;;7.74;100.00
48553;BME280;34335;51.566;6.994;2023-03-20T01:38:40;101346.66;;;7.72;100.00
48553;BME280;34335;51.566;6.994;2023-03-20T01:41:16;101344.03;;;7.69;100.00
48553;BME280;34335;51.566;6.994;2023-03-20T01:43:43;101344.69;;;7.61;100.00
48553;BME280;34335;51.566;6.994;2023-03-20T01:46:27;101340.78;;;7.79;100.00
48553;BME280;34335;51.566;6.994;2023-03-20T01:51:46;101329.38;;;7.71;100.00
48553;BME280;34335;51.566;6.994;2023-03-20T01:54:16;101318.06;;;7.66;100.00
48553;BME280;34335;51.566;6.994;2023-03-20T01:56:49;101329.34;;;7.69;100.00
48553;BME280;34335;51.566;6.994;2023-03-20T01:59:37;101331.19;;;7.75;100.00
48553;BME280;34335;51.566;6.994;2023-03-20T02:02:06;101328.78;;;7.83;100.00
48553;BME280;34335;51.566;6.994;2023-03-20T02:04:36;101330.38;;;7.77;100.00
48553;BME280;34335;51.566;6.994;2023-03-20T02:07:04;101333.75;;;7.73;100.00
48553;BME280;34335;51.566;6.994;2023-03-20T02:09:30;101333.75;;;7.73;100.00
48553;BME280;34335;51.566;6.994;2023-03-20T02:11:56;101333.59;;;7.67;100.00
48553;BME280;34335;51.566;6.994;2023-03-20T02:14:22;101345.50;;;7.57;100.00
48553;BME280;34335;51.566;6.994;2023-03-20T02:16:47;101345.53;;;7.59;100.00
48553;BME280;34335;51.566;6.994;2023-03-20T02:19:22;101350.78;;;7.63;100.00
48553;BME280;34335;51.566;6.994;2023-03-20T02:24:53;101348.56;;;7.79;100.00
48553;BME280;34335;51.566;6.994;2023-03-20T02:27:33;101334.91;;;7.88;100.00
48553;BME280;34335;51.566;6.994;2023-03-20T02:38:30;101341.63;;;7.78;100.00
48553;BME280;34335;51.566;6.994;2023-03-20T02:41:36;101349.09;;;7.64;100.00
48553;BME280;34335;51.566;6.994;2023-03-20T02:44:23;101348.22;;;7.63;100.00
48553;BME280;34335;51.566;6.994;2023-03-20T02:47:02;101349.84;;;7.60;100.00
48553;BME280;34335;51.566;6.994;2023-03-20T02:49:53;101354.72;;;7.44;100.00
48553;BME280;34335;51.566;6.994;2023-03-20T02:52:38;101348.91;;;7.55;100.00
48553;BME280;34335;51.566;6.994;2023-03-20T02:55:25;101350.41;;;7.45;100.00
48553;BME280;34335;51.566;6.994;2023-03-20T02:58:13;101354.50;;;7.35;100.00
48553;BME280;34335;51.566;6.994;2023-03-20T03:00:57;101358.19;;;7.46;100.00
48553;BME280;34335;51.566;6.994;2023-03-20T03:03:31;101351.84;;;7.32;100.00
48553;BME280;34335;51.566;6.994;2023-03-20T03:06:02;101337.56;;;7.49;100.00
48553;BME280;34335;51.566;6.994;2023-03-20T03:08:34;101350.63;;;7.56;100.00
48553;BME280;34335;51.566;6.994;2023-03-20T03:11:05;101359.09;;;7.48;100.00
48553;BME280;34335;51.566;6.994;2023-03-20T03:13:32;101347.88;;;7.48;100.00
48553;BME280;34335;51.566;6.994;2023-03-20T03:16:04;101344.25;;;7.40;100.00
48553;BME280;34335;51.566;6.994;2023-03-20T03:18:31;101319.38;;;7.46;100.00
48553;BME280;34335;51.566;6.994;2023-03-20T03:20:59;101326.88;;;7.34;100.00
48553;BME280;34335;51.566;6.994;2023-03-20T03:23:42;101318.06;;;7.26;100.00
48553;BME280;34335;51.566;6.994;2023-03-20T03:26:23;101317.41;;;7.36;100.00
48553;BME280;34335;51.566;6.994;2023-03-20T03:28:54;101307.84;;;7.32;100.00
48553;BME280;34335;51.566;6.994;2023-03-20T03:31:22;101293.25;;;7.34;100.00
48553;BME280;34335;51.566;6.994;2023-03-20T03:33:50;101281.25;;;7.39;100.00
48553;BME280;34335;51.566;6.994;2023-03-20T03:39:39;101283.00;;;7.40;100.00
48553;BME280;34335;51.566;6.994;2023-03-20T03:42:29;101294.22;;;7.41;100.00
48553;BME280;34335;51.566;6.994;2023-03-20T03:45:09;101282.75;;;7.28;100.00
48553;BME280;34335;51.566;6.994;2023-03-20T03:47:55;101300.94;;;7.32;100.00
48553;BME280;34335;51.566;6.994;2023-03-20T03:50:31;101305.47;;;7.43;100.00
48553;BME280;34335;51.566;6.994;2023-03-20T03:53:05;101316.94;;;7.53;100.00
48553;BME280;34335;51.566;6.994;2023-03-20T03:55:37;101318.47;;;7.44;100.00
48553;BME280;34335;51.566;6.994;2023-03-20T03:58:07;101323.75;;;7.49;100.00
48553;BME280;34335;51.566;6.994;2023-03-20T04:00:34;101330.34;;;7.36;100.00
48553;BME280;34335;51.566;6.994;2023-03-20T04:03:00;101334.84;;;7.43;100.00
48553;BME280;34335;51.566;6.994;2023-03-20T04:05:30;101331.47;;;7.47;100.00
48553;BME280;34335;51.566;6.994;2023-03-20T04:08:01;101331.78;;;7.23;100.00
48553;BME280;34335;51.566;6.994;2023-03-20T04:10:27;101330.91;;;7.21;100.00
48553;BME280;34335;51.566;6.994;2023-03-20T04:12:52;101325.25;;;7.39;100.00
48553;BME280;34335;51.566;6.994;2023-03-20T04:15:17;101331.16;;;7.33;100.00
48553;BME280;34335;51.566;6.994;2023-03-20T04:17:44;101321.63;;;7.31;100.00
48553;BME280;34335;51.566;6.994;2023-03-20T04:20:11;101309.50;;;7.28;100.00
48553;BME280;34335;51.566;6.994;2023-03-20T04:22:36;101309.41;;;7.24;100.00
48553;BME280;34335;51.566;6.994;2023-03-20T04:25:03;101302.41;;;7.20;100.00
48553;BME280;34335;51.566;6.994;2023-03-20T04:27:29;101301.44;;;7.14;100.00
48553;BME280;34335;51.566;6.994;2023-03-20T04:29:54;101309.09;;;7.11;100.00
48553;BME280;34335;51.566;6.994;2023-03-20T04:32:20;101304.78;;;7.12;100.00
48553;BME280;34335;51.566;6.994;2023-03-20T04:34:46;101304.66;;;7.04;100.00
48553;BME280;34335;51.566;6.994;2023-03-20T04:37:12;101307.25;;;7.06;100.00
48553;BME280;34335;51.566;6.994;2023-03-20T04:39:37;101297.72;;;7.03;100.00
48553;BME280;34335;51.566;6.994;2023-03-20T04:42:03;101299.59;;;7.10;100.00
48553;BME280;34335;51.566;6.994;2023-03-20T04:44:29;101285.81;;;7.10;100.00
48553;BME280;34335;51.566;6.994;2023-03-20T04:46:54;101272.81;;;7.08;100.00
48553;BME280;34335;51.566;6.994;2023-03-20T04:49:20;101279.59;;;7.01;100.00
48553;BME280;34335;51.566;6.994;2023-03-20T04:51:45;101275.97;;;6.95;100.00
48553;BME280;34335;51.566;6.994;2023-03-20T04:54:10;101273.22;;;6.89;100.00
48553;BME280;34335;51.566;6.994;2023-03-20T04:56:36;101284.31;;;6.83;100.00
48553;BME280;34335;51.566;6.994;2023-03-20T04:59:01;101287.78;;;6.83;100.00
48553;BME280;34335;51.566;6.994;2023-03-20T05:01:26;101295.56;;;6.85;100.00
48553;BME280;34335;51.566;6.994;2023-03-20T05:03:52;101285.09;;;6.80;100.00
48553;BME280;34335;51.566;6.994;2023-03-20T05:06:17;101292.00;;;6.80;100.00
48553;BME280;34335;51.566;6.994;2023-03-20T05:08:42;101291.19;;;6.81;100.00
48553;BME280;34335;51.566;6.994;2023-03-20T05:11:08;101297.00;;;6.74;100.00
48553;BME280;34335;51.566;6.994;2023-03-20T05:13:34;101286.72;;;6.75;100.00
48553;BME280;34335;51.566;6.994;2023-03-20T05:15:59;101298.81;;;6.76;100.00
48553;BME280;34335;51.566;6.994;2023-03-20T05:18:25;101291.59;;;6.63;100.00
48553;BME280;34335;51.566;6.994;2023-03-20T05:20:50;101291.72;;;6.69;100.00
48553;BME280;34335;51.566;6.994;2023-03-20T05:23:15;101299.44;;;6.66;100.00
48553;BME280;34335;51.566;6.994;2023-03-20T05:25:41;101289.13;;;6.67;100.00
48553;BME280;34335;51.566;6.994;2023-03-20T05:28:06;101297.75;;;6.68;100.00
48553;BME280;34335;51.566;6.994;2023-03-20T05:30:31;101301.13;;;6.65;100.00
48553;BME280;34335;51.566;6.994;2023-03-20T05:32:57;101299.66;;;6.75;100.00
48553;BME280;34335;51.566;6.994;2023-03-20T05:35:22;101303.75;;;6.67;100.00
48553;BME280;34335;51.566;6.994;2023-03-20T05:37:47;101302.06;;;6.69;100.00
48553;BME280;34335;51.566;6.994;2023-03-20T05:40:14;101306.22;;;6.62;100.00
48553;BME280;34335;51.566;6.994;2023-03-20T05:42:40;101302.75;;;6.62;100.00
48553;BME280;34335;51.566;6.994;2023-03-20T05:45:06;101310.38;;;6.55;100.00
48553;BME280;34335;51.566;6.994;2023-03-20T05:47:32;101315.53;;;6.55;100.00
48553;BME280;34335;51.566;6.994;2023-03-20T05:49:57;101309.56;;;6.58;100.00
48553;BME280;34335;51.566;6.994;2023-03-20T05:52:22;101311.19;;;6.54;100.00
48553;BME280;34335;51.566;6.994;2023-03-20T05:54:48;101315.44;;;6.52;100.00
48553;BME280;34335;51.566;6.994;2023-03-20T05:57:13;101309.44;;;6.52;100.00
48553;BME280;34335;51.566;6.994;2023-03-20T05:59:39;101314.53;;;6.50;100.00
48553;BME280;34335;51.566;6.994;2023-03-20T06:02:04;101308.47;;;6.48;100.00
48553;BME280;34335;51.566;6.994;2023-03-20T06:04:30;101302.31;;;6.45;100.00
48553;BME280;34335;51.566;6.994;2023-03-20T06:06:55;101302.38;;;6.46;100.00
48553;BME280;34335;51.566;6.994;2023-03-20T06:09:21;101300.66;;;6.47;100.00
48553;BME280;34335;51.566;6.994;2023-03-20T06:11:46;101313.56;;;6.45;100.00
48553;BME280;34335;51.566;6.994;2023-03-20T06:14:11;101311.81;;;6.44;100.00
48553;BME280;34335;51.566;6.994;2023-03-20T06:16:36;101311.09;;;6.50;100.00
48553;BME280;34335;51.566;6.994;2023-03-20T06:19:02;101315.50;;;6.54;100.00
48553;BME280;34335;51.566;6.994;2023-03-20T06:21:27;101310.28;;;6.52;100.00
48553;BME280;34335;51.566;6.994;2023-03-20T06:23:52;101315.44;;;6.51;100.00
48553;BME280;34335;51.566;6.994;2023-03-20T06:26:19;101317.22;;;6.55;100.00
48553;BME280;34335;51.566;6.994;2023-03-20T06:28:45;101319.09;;;6.61;100.00
48553;BME280;34335;51.566;6.994;2023-03-20T06:31:10;101328.28;;;6.49;100.00
48553;BME280;34335;51.566;6.994;2023-03-20T06:33:35;101337.03;;;6.54;100.00
48553;BME280;34335;51.566;6.994;2023-03-20T06:36:02;101329.19;;;6.51;100.00
48553;BME280;34335;51.566;6.994;2023-03-20T06:38:28;101336.03;;;6.49;100.00
48553;BME280;34335;51.566;6.994;2023-03-20T06:40:53;101337.84;;;6.52;100.00
48553;BME280;34335;51.566;6.994;2023-03-20T06:43:18;101338.59;;;6.48;100.00
48553;BME280;34335;51.566;6.994;2023-03-20T06:45:44;101333.44;;;6.49;100.00
48553;BME280;34335;51.566;6.994;2023-03-20T06:48:09;101343.94;;;6.54;100.00
48553;BME280;34335;51.566;6.994;2023-03-20T06:50:35;101343.03;;;6.53;100.00
48553;BME280;34335;51.566;6.994;2023-03-20T06:53:01;101350.19;;;6.64;100.00
48553;BME280;34335;51.566;6.994;2023-03-20T06:55:26;101349.25;;;6.60;100.00
48553;BME280;34335;51.566;6.994;2023-03-20T06:57:51;101353.84;;;6.72;100.00
48553;BME280;34335;51.566;6.994;2023-03-20T07:00:17;101353.72;;;6.66;100.00
48553;BME280;34335;51.566;6.994;2023-03-20T07:02:44;101357.09;;;6.63;100.00
48553;BME280;34335;51.566;6.994;2023-03-20T07:05:09;101353.84;;;6.72;100.00
48553;BME280;34335;51.566;6.994;2023-03-20T07:07:35;101355.50;;;6.68;100.00
48553;BME280;34335;51.566;6.994;2023-03-20T07:10:03;101352.78;;;6.64;100.00
48553;BME280;34335;51.566;6.994;2023-03-20T07:12:29;101351.97;;;6.65;100.00
48553;BME280;34335;51.566;6.994;2023-03-20T07:14:54;101353.66;;;6.64;100.00
48553;BME280;34335;51.566;6.994;2023-03-20T07:17:20;101357.28;;;6.71;100.00
48553;BME280;34335;51.566;6.994;2023-03-20T07:19:46;101352.19;;;6.74;100.00
48553;BME280;34335;51.566;6.994;2023-03-20T07:22:30;101362.56;;;6.76;100.00
48553;BME280;34335;51.566;6.994;2023-03-20T07:24:56;101364.31;;;6.77;100.00
48553;BME280;34335;51.566;6.994;2023-03-20T07:27:21;101360.19;;;6.85;100.00
48553;BME280;34335;51.566;6.994;2023-03-20T07:29:47;101359.34;;;6.84;100.00
48553;BME280;34335;51.566;6.994;2023-03-20T07:32:12;101365.47;;;6.88;100.00
48553;BME280;34335;51.566;6.994;2023-03-20T07:34:37;101366.53;;;6.98;100.00
48553;BME280;34335;51.566;6.994;2023-03-20T07:37:03;101376.84;;;6.95;100.00
48553;BME280;34335;51.566;6.994;2023-03-20T07:39:28;101376.03;;;6.97;100.00
48553;BME280;34335;51.566;6.994;2023-03-20T07:41:54;101378.72;;;7.02;100.00
48553;BME280;34335;51.566;6.994;2023-03-20T07:44:19;101378.81;;;7.05;100.00
48553;BME280;34335;51.566;6.994;2023-03-20T07:46:45;101371.94;;;7.07;100.00
48553;BME280;34335;51.566;6.994;2023-03-20T07:49:15;101375.63;;;7.15;100.00
48553;BME280;34335;51.566;6.994;2023-03-20T07:51:43;101371.28;;;7.16;100.00
48553;BME280;34335;51.566;6.994;2023-03-20T07:54:08;101374.88;;;7.21;100.00
48553;BME280;34335;51.566;6.994;2023-03-20T07:56:33;101385.50;;;7.33;100.00
48553;BME280;34335;51.566;6.994;2023-03-20T07:58:58;101379.56;;;7.38;100.00
48553;BME280;34335;51.566;6.994;2023-03-20T08:01:24;101374.50;;;7.42;100.00
48553;BME280;34335;51.566;6.994;2023-03-20T08:03:49;101379.88;;;7.52;100.00
48553;BME280;34335;51.566;6.994;2023-03-20T08:06:15;101381.78;;;7.60;100.00
48553;BME280;34335;51.566;6.994;2023-03-20T08:08:40;101375.09;;;7.70;100.00
48553;BME280;34335;51.566;6.994;2023-03-20T08:11:06;101386.19;;;7.64;100.00
48553;BME280;34335;51.566;6.994;2023-03-20T08:13:31;101380.16;;;7.64;100.00
48553;BME280;34335;51.566;6.994;2023-03-20T08:15:56;101388.03;;;7.69;100.00
48553;BME280;34335;51.566;6.994;2023-03-20T08:18:22;101378.81;;;7.82;100.00
48553;BME280;34335;51.566;6.994;2023-03-20T08:20:47;101382.16;;;7.77;100.00
48553;BME280;34335;51.566;6.994;2023-03-20T08:23:15;101381.34;;;7.80;100.00
48553;BME280;34335;51.566;6.994;2023-03-20T08:25:40;101383.06;;;7.79;100.00
48553;BME280;34335;51.566;6.994;2023-03-20T08:28:06;101385.59;;;7.76;100.00
48553;BME280;34335;51.566;6.994;2023-03-20T08:30:31;101389.22;;;7.85;100.00
48553;BME280;34335;51.566;6.994;2023-03-20T08:32:57;101388.75;;;8.04;100.00
48553;BME280;34335;51.566;6.994;2023-03-20T08:35:23;101385.94;;;7.92;100.00
48553;BME280;34335;51.566;6.994;2023-03-20T08:37:48;101389.56;;;8.00;100.00
48553;BME280;34335;51.566;6.994;2023-03-20T08:40:14;101392.97;;;7.99;100.00
48553;BME280;34335;51.566;6.994;2023-03-20T08:42:39;101391.91;;;7.89;100.00
48553;BME280;34335;51.566;6.994;2023-03-20T08:45:05;101390.47;;;8.02;100.00
48553;BME280;34335;51.566;6.994;2023-03-20T08:47:31;101386.97;;;8.00;100.00
48553;BME280;34335;51.566;6.994;2023-03-20T08:49:56;101385.13;;;7.96;100.00
48553;BME280;34335;51.566;6.994;2023-03-20T08:52:21;101388.72;;;8.03;100.00
48553;BME280;34335;51.566;6.994;2023-03-20T08:54:47;101382.50;;;7.93;100.00
48553;BME280;34335;51.566;6.994;2023-03-20T08:57:12;101375.75;;;8.01;100.00
48553;BME280;34335;51.566;6.994;2023-03-20T08:59:37;101382.81;;;8.08;100.00
48553;BME280;34335;51.566;6.994;2023-03-20T09:02:03;101386.97;;;8.02;100.00
48553;BME280;34335;51.566;6.994;2023-03-20T09:04:28;101378.66;;;8.18;100.00
48553;BME280;34335;51.566;6.994;2023-03-20T09:06:53;101386.22;;;8.07;100.00
48553;BME280;34335;51.566;6.994;2023-03-20T09:09:19;101383.75;;;8.14;100.00
48553;BME280;34335;51.566;6.994;2023-03-20T09:11:50;101388.38;;;8.29;100.00
48553;BME280;34335;51.566;6.994;2023-03-20T09:14:15;101388.75;;;8.04;100.00
48553;BME280;34335;51.566;6.994;2023-03-20T09:16:41;101392.22;;;8.05;100.00
48553;BME280;34335;51.566;6.994;2023-03-20T09:19:06;101384.31;;;7.99;100.00
48553;BME280;34335;51.566;6.994;2023-03-20T09:21:31;101386.31;;;8.12;100.00
48553;BME280;34335;51.566;6.994;2023-03-20T09:23:56;101379.66;;;8.25;100.00
48553;BME280;34335;51.566;6.994;2023-03-20T09:26:22;101392.13;;;8.00;100.00
48553;BME280;34335;51.566;6.994;2023-03-20T09:28:48;101385.00;;;7.88;100.00
48553;BME280;34335;51.566;6.994;2023-03-20T09:31:13;101382.53;;;7.96;100.00
48553;BME280;34335;51.566;6.994;2023-03-20T09:33:38;101379.56;;;8.19;100.00
48553;BME280;34335;51.566;6.994;2023-03-20T09:36:04;101385.59;;;8.19;100.00
48553;BME280;34335;51.566;6.994;2023-03-20T09:38:29;101382.53;;;8.39;100.00
48553;BME280;34335;51.566;6.994;2023-03-20T09:40:57;101398.63;;;8.24;100.00
48553;BME280;34335;51.566;6.994;2023-03-20T09:48:40;101387.22;;;8.13;100.00
48553;BME280;34335;51.566;6.994;2023-03-20T09:54:21;101396.63;;;8.09;100.00
48553;BME280;34335;51.566;6.994;2023-03-20T09:56:49;101391.53;;;8.14;100.00
48553;BME280;34335;51.566;6.994;2023-03-20T09:59:16;101398.63;;;8.24;100.00
48553;BME280;34335;51.566;6.994;2023-03-20T10:01:49;101398.59;;;8.21;100.00
48553;BME280;34335;51.566;6.994;2023-03-20T10:04:15;101398.81;;;8.33;100.00
48553;BME280;34335;51.566;6.994;2023-03-20T10:06:41;101409.66;;;8.14;100.00
48553;BME280;34335;51.566;6.994;2023-03-20T10:09:22;101398.59;;;8.21;100.00
48553;BME280;34335;51.566;6.994;2023-03-20T10:11:56;101399.28;;;8.12;100.00
48553;BME280;34335;51.566;6.994;2023-03-20T10:17:29;101394.13;;;8.14;100.00
48553;BME280;34335;51.566;6.994;2023-03-20T10:20:00;101396.31;;;8.36;100.00
48553;BME280;34335;51.566;6.994;2023-03-20T10:22:35;101396.19;;;8.30;100.00
48553;BME280;34335;51.566;6.994;2023-03-20T10:25:05;101390.44;;;8.45;100.00
48553;BME280;34335;51.566;6.994;2023-03-20T10:27:39;101381.34;;;8.67;100.00
48553;BME280;34335;51.566;6.994;2023-03-20T10:30:21;101384.72;;;8.63;100.00
48553;BME280;34335;51.566;6.994;2023-03-20T10:33:05;101387.50;;;8.26;100.00
48553;BME280;34335;51.566;6.994;2023-03-20T10:41:11;101381.34;;;8.23;100.00
48553;BME280;34335;51.566;6.994;2023-03-20T10:43:40;101379.63;;;8.22;100.00
48553;BME280;34335;51.566;6.994;2023-03-20T10:48:38;101366.31;;;8.48;100.00
48553;BME280;34335;51.566;6.994;2023-03-20T10:51:11;101377.38;;;8.40;100.00
48553;BME280;34335;51.566;6.994;2023-03-20T10:53:46;101380.00;;;8.42;100.00
48553;BME280;34335;51.566;6.994;2023-03-20T10:56:26;101369.66;;;8.43;100.00
48553;BME280;34335;51.566;6.994;2023-03-20T10:59:09;101365.81;;;8.70;100.00
48553;BME280;34335;51.566;6.994;2023-03-20T11:01:36;101371.75;;;8.63;100.00
48553;BME280;34335;51.566;6.994;2023-03-20T11:04:01;101368.31;;;8.63;100.00
48553;BME280;34335;51.566;6.994;2023-03-20T11:06:31;101363.41;;;8.80;100.00
48553;BME280;34335;51.566;6.994;2023-03-20T11:09:10;101359.25;;;8.91;100.00
48553;BME280;34335;51.566;6.994;2023-03-20T11:11:37;101349.41;;;8.71;100.00
48553;BME280;34335;51.566;6.994;2023-03-20T11:14:13;101353.59;;;9.15;100.00
48553;BME280;34335;51.566;6.994;2023-03-20T11:16:40;101353.91;;;8.80;100.00
48553;BME280;34335;51.566;6.994;2023-03-20T11:19:07;101357.44;;;8.85;100.00
48553;BME280;34335;51.566;6.994;2023-03-20T11:21:34;101359.84;;;8.75;100.00
48553;BME280;34335;51.566;6.994;2023-03-20T11:24:01;101349.91;;;9.01;100.00
48553;BME280;34335;51.566;6.994;2023-03-20T11:26:35;101367.09;;;8.94;100.00
48553;BME280;34335;51.566;6.994;2023-03-20T11:29:04;101357.75;;;9.04;100.00
48553;BME280;34335;51.566;6.994;2023-03-20T11:31:35;101360.00;;;8.84;100.00
48553;BME280;34335;51.566;6.994;2023-03-20T11:34:09;101354.59;;;8.70;100.00
48553;BME280;34335;51.566;6.994;2023-03-20T11:36:35;101361.22;;;8.54;100.00
48553;BME280;34335;51.566;6.994;2023-03-20T11:44:35;101354.97;;;8.44;100.00
48553;BME280;34335;51.566;6.994;2023-03-20T11:47:10;101351.47;;;8.42;100.00
48553;BME280;34335;51.566;6.994;2023-03-20T11:49:47;101349.41;;;8.68;100.00
48553;BME280;34335;51.566;6.994;2023-03-20T11:52:19;101348.50;;;8.68;100.00
48553;BME280;34335;51.566;6.994;2023-03-20T11:54:54;101346.50;;;8.51;100.00
48553;BME280;34335;51.566;6.994;2023-03-20T11:57:33;101355.75;;;8.40;100.00
48553;BME280;34335;51.566;6.994;2023-03-20T12:02:35;101346.06;;;8.77;100.00
48553;BME280;34335;51.566;6.994;2023-03-20T12:05:31;101341.03;;;8.86;100.00
48553;BME280;34335;51.566;6.994;2023-03-20T12:10:36;101342.06;;;8.98;100.00
48553;BME280;34335;51.566;6.994;2023-03-20T12:15:36;101337.50;;;8.83;100.00
48553;BME280;34335;51.566;6.994;2023-03-20T12:18:25;101356.25;;;8.66;100.00
48553;BME280;34335;51.566;6.994;2023-03-20T12:21:15;101341.63;;;8.68;100.00
48553;BME280;34335;51.566;6.994;2023-03-20T12:23:59;101335.75;;;8.80;100.00
48553;BME280;34335;51.566;6.994;2023-03-20T12:29:31;101346.81;;;8.70;100.00
48553;BME280;34335;51.566;6.994;2023-03-20T12:32:04;101346.13;;;8.82;100.00
48553;BME280;34335;51.566;6.994;2023-03-20T12:34:35;101341.66;;;8.71;100.00
48553;BME280;34335;51.566;6.994;2023-03-20T12:37:01;101337.81;;;9.01;100.00
48553;BME280;34335;51.566;6.994;2023-03-20T12:39:32;101331.56;;;8.90;100.00
48553;BME280;34335;51.566;6.994;2023-03-20T12:50:40;101330.19;;;8.57;100.00
48553;BME280;34335;51.566;6.994;2023-03-20T12:53:35;101323.47;;;8.70;100.00
48553;BME280;34335;51.566;6.994;2023-03-20T12:56:06;101333.63;;;8.57;100.00
48553;BME280;34335;51.566;6.994;2023-03-20T13:01:19;101323.41;;;8.65;100.00
48553;BME280;34335;51.566;6.994;2023-03-20T13:06:40;101317.97;;;8.05;100.00
48553;BME280;34335;51.566;6.994;2023-03-20T13:17:23;101307.09;;;8.72;100.00
48553;BME280;34335;51.566;6.994;2023-03-20T13:20:14;101307.84;;;8.65;100.00
48553;BME280;34335;51.566;6.994;2023-03-20T13:23:22;101297.72;;;8.81;100.00
48553;BME280;34335;51.566;6.994;2023-03-20T13:26:11;101296.38;;;8.51;100.00
48553;BME280;34335;51.566;6.994;2023-03-20T13:32:02;101296.75;;;8.74;100.00
48553;BME280;34335;51.566;6.994;2023-03-20T13:37:55;101298.81;;;8.45;100.00
48553;BME280;34335;51.566;6.994;2023-03-20T13:40:33;101300.69;;;8.52;100.00
48553;BME280;34335;51.566;6.994;2023-03-20T13:45:37;101301.91;;;8.25;100.00
48553;BME280;34335;51.566;6.994;2023-03-20T13:51:09;101292.78;;;8.44;100.00
48553;BME280;34335;51.566;6.994;2023-03-20T13:59:14;101282.78;;;8.66;100.00
48553;BME280;34335;51.566;6.994;2023-03-20T14:04:42;101281.03;;;9.23;100.00
48553;BME280;34335;51.566;6.994;2023-03-20T14:07:26;101279.81;;;8.96;100.00
48553;BME280;34335;51.566;6.994;2023-03-20T14:09:52;101273.50;;;9.40;100.00
48553;BME280;34335;51.566;6.994;2023-03-20T14:12:23;101275.66;;;9.09;100.00
48553;BME280;34335;51.566;6.994;2023-03-20T14:14:55;101278.69;;;8.79;100.00
48553;BME280;34335;51.566;6.994;2023-03-20T14:17:28;101268.72;;;9.08;100.00
48553;BME280;34335;51.566;6.994;2023-03-20T14:19:55;101269.00;;;8.68;100.00
48553;BME280;34335;51.566;6.994;2023-03-20T14:22:34;101266.00;;;8.99;100.00
48553;BME280;34335;51.566;6.994;2023-03-20T14:25:16;101262.75;;;9.14;100.00
48553;BME280;34335;51.566;6.994;2023-03-20T14:27:55;101268.97;;;9.27;100.00
48553;BME280;34335;51.566;6.994;2023-03-20T14:35:48;101254.16;;;8.58;100.00
48553;BME280;34335;51.566;6.994;2023-03-20T14:38:24;101255.00;;;8.58;100.00
48553;BME280;34335;51.566;6.994;2023-03-20T14:40:52;101252.81;;;8.83;100.00
48553;BME280;34335;51.566;6.994;2023-03-20T14:46:30;101251.88;;;9.43;100.00
48553;BME280;34335;51.566;6.994;2023-03-20T14:49:01;101247.13;;;9.11;100.00
48553;BME280;34335;51.566;6.994;2023-03-20T14:51:36;101250.19;;;9.45;100.00
48553;BME280;34335;51.566;6.994;2023-03-20T14:56:47;101247.47;;;9.35;100.00
48553;BME280;34335;51.566;6.994;2023-03-20T14:59:19;101238.22;;;9.59;100.00